createdAt,value
2017-06-21T00:00:38.431Z,17.06
2017-06-21T00:01:38.428Z,17.01
2017-06-21T00:02:38.420Z,16.98
2017-06-21T00:03:38.417Z,16.91
2017-06-21T00:04:38.417Z,16.89
2017-06-21T00:05:38.410Z,16.88
2017-06-21T00:06:38.429Z,16.81
2017-06-21T00:07:38.102Z,16.85
2017-06-21T00:08:38.098Z,16.86
2017-06-21T00:09:38.399Z,16.79
2017-06-21T00:10:38.395Z,16.79
2017-06-21T00:11:38.085Z,16.75
2017-06-21T00:12:38.388Z,16.75
2017-06-21T00:13:38.385Z,16.75
2017-06-21T00:14:38.381Z,16.7
2017-06-21T00:15:38.077Z,16.68
2017-06-21T00:16:38.068Z,16.56
2017-06-21T00:17:38.370Z,16.58
2017-06-21T00:18:38.370Z,16.61
2017-06-21T00:19:38.060Z,16.52
2017-06-21T00:20:38.358Z,16.5
2017-06-21T00:21:38.052Z,16.45
2017-06-21T00:22:38.049Z,16.38
2017-06-21T00:23:38.349Z,16.43
2017-06-21T00:24:38.344Z,16.43
2017-06-21T00:25:38.039Z,16.35
2017-06-21T00:26:38.032Z,16.42
2017-06-21T00:27:38.339Z,16.38
2017-06-21T00:28:38.328Z,16.38
2017-06-21T00:29:38.327Z,16.39
2017-06-21T00:30:38.321Z,16.38
2017-06-21T00:31:38.317Z,16.31
2017-06-21T00:32:38.314Z,16.33
2017-06-21T00:33:38.007Z,16.28
2017-06-21T00:34:38.010Z,16.39
2017-06-21T00:35:38.000Z,16.27
2017-06-21T00:36:37.995Z,16.25
2017-06-21T00:37:37.992Z,16.31
2017-06-21T00:38:38.292Z,16.25
2017-06-21T00:39:38.286Z,16.3
2017-06-21T00:40:38.301Z,16.25
2017-06-21T00:41:37.977Z,16.23
2017-06-21T00:42:38.275Z,16.21
2017-06-21T00:43:38.274Z,16.12
2017-06-21T00:44:38.268Z,16.08
2017-06-21T00:45:38.267Z,16.12
2017-06-21T00:46:37.963Z,16.09
2017-06-21T00:47:37.954Z,16.11
2017-06-21T00:48:37.950Z,16.11
2017-06-21T00:49:38.249Z,16.15
2017-06-21T00:50:38.255Z,16.17
2017-06-21T00:51:38.254Z,16.11
2017-06-21T00:52:38.237Z,16.09
2017-06-21T00:53:37.934Z,16.01
2017-06-21T00:54:38.231Z,16
2017-06-21T00:55:38.226Z,15.96
2017-06-21T00:56:38.227Z,16
2017-06-21T00:57:38.221Z,15.94
2017-06-21T00:58:38.216Z,15.96
2017-06-21T00:59:37.908Z,16
2017-06-21T01:00:38.206Z,16
2017-06-21T01:01:37.900Z,15.96
2017-06-21T01:02:38.200Z,16.01
2017-06-21T01:03:38.194Z,15.92
2017-06-21T01:04:37.888Z,15.89
2017-06-21T01:05:37.885Z,15.92
2017-06-21T01:06:38.183Z,15.86
2017-06-21T01:07:37.878Z,15.83
2017-06-21T01:08:37.873Z,15.83
2017-06-21T01:09:38.171Z,15.75
2017-06-21T01:10:38.166Z,15.75
2017-06-21T01:11:38.161Z,15.75
2017-06-21T01:12:38.163Z,15.64
2017-06-21T01:13:38.153Z,15.64
2017-06-21T01:14:37.847Z,15.62
2017-06-21T01:15:38.146Z,15.6
2017-06-21T01:16:37.840Z,15.57
2017-06-21T01:17:37.836Z,15.53
2017-06-21T01:18:37.830Z,15.57
2017-06-21T01:19:38.131Z,15.65
2017-06-21T01:20:38.127Z,15.6
2017-06-21T01:21:38.121Z,15.51
2017-06-21T01:22:38.118Z,15.54
2017-06-21T01:23:37.810Z,15.54
2017-06-21T01:24:38.107Z,15.56
2017-06-21T01:25:37.803Z,15.5
2017-06-21T01:26:38.108Z,15.41
2017-06-21T01:27:38.099Z,15.43
2017-06-21T01:28:38.091Z,15.49
2017-06-21T01:29:38.087Z,15.43
2017-06-21T01:30:38.090Z,15.46
2017-06-21T01:31:38.080Z,15.38
2017-06-21T01:32:38.075Z,15.38
2017-06-21T01:33:38.069Z,15.39
2017-06-21T01:34:38.067Z,15.38
2017-06-21T01:35:38.061Z,15.32
2017-06-21T01:36:38.056Z,15.34
2017-06-21T01:37:37.751Z,15.36
2017-06-21T01:38:38.051Z,15.35
2017-06-21T01:39:37.742Z,15.28
2017-06-21T01:40:37.738Z,15.27
2017-06-21T01:41:38.036Z,15.25
2017-06-21T01:42:38.034Z,15.21
2017-06-21T01:43:38.025Z,15.19
2017-06-21T01:44:38.024Z,15.25
2017-06-21T01:45:38.018Z,15.2
2017-06-21T01:46:37.709Z,15.16
2017-06-21T01:47:38.011Z,15.09
2017-06-21T01:48:38.005Z,15.02
2017-06-21T01:49:38.001Z,15.1
2017-06-21T01:50:37.995Z,15.09
2017-06-21T01:51:37.996Z,15.02
2017-06-21T01:52:37.986Z,15.06
2017-06-21T01:53:37.982Z,15.02
2017-06-21T01:54:37.981Z,15.07
2017-06-21T01:55:37.975Z,15.01
2017-06-21T01:56:37.969Z,14.99
2017-06-21T01:57:37.965Z,14.96
2017-06-21T01:58:37.958Z,14.94
2017-06-21T01:59:37.955Z,14.92
2017-06-21T02:00:37.953Z,14.91
2017-06-21T02:01:37.944Z,14.95
2017-06-21T02:02:37.942Z,14.88
2017-06-21T02:03:37.936Z,14.94
2017-06-21T02:04:37.931Z,14.86
2017-06-21T02:05:37.927Z,14.86
2017-06-21T02:06:37.926Z,14.83
2017-06-21T02:07:37.917Z,14.81
2017-06-21T02:08:37.912Z,14.88
2017-06-21T02:09:37.916Z,14.84
2017-06-21T02:10:37.905Z,14.84
2017-06-21T02:11:37.899Z,14.81
2017-06-21T02:12:37.893Z,14.77
2017-06-21T02:13:37.891Z,14.77
2017-06-21T02:14:37.889Z,14.73
2017-06-21T02:15:37.880Z,14.77
2017-06-21T02:16:37.876Z,14.72
2017-06-21T02:17:37.870Z,14.7
2017-06-21T02:18:37.866Z,14.73
2017-06-21T02:19:37.568Z,14.8
2017-06-21T02:20:37.857Z,14.61
2017-06-21T02:21:37.853Z,14.69
2017-06-21T02:22:37.851Z,14.62
2017-06-21T02:23:37.841Z,14.62
2017-06-21T02:24:37.838Z,14.61
2017-06-21T02:25:37.833Z,14.57
2017-06-21T02:26:37.829Z,14.72
2017-06-21T02:27:37.828Z,14.7
2017-06-21T02:28:37.519Z,14.6
2017-06-21T02:29:37.817Z,14.65
2017-06-21T02:30:37.812Z,14.58
2017-06-21T02:31:37.810Z,14.58
2017-06-21T02:32:37.500Z,14.58
2017-06-21T02:33:37.796Z,14.62
2017-06-21T02:34:37.793Z,14.6
2017-06-21T02:35:37.485Z,14.57
2017-06-21T02:36:37.785Z,14.58
2017-06-21T02:37:37.776Z,14.58
2017-06-21T02:38:37.470Z,14.55
2017-06-21T02:39:37.767Z,14.61
2017-06-21T02:40:37.762Z,14.65
2017-06-21T02:41:37.765Z,14.58
2017-06-21T02:42:37.754Z,14.54
2017-06-21T02:43:37.747Z,14.72
2017-06-21T02:44:37.743Z,14.58
2017-06-21T02:45:37.762Z,14.62
2017-06-21T02:46:37.733Z,14.65
2017-06-21T02:47:37.734Z,14.57
2017-06-21T02:48:37.722Z,14.62
2017-06-21T02:49:37.720Z,14.61
2017-06-21T02:50:37.715Z,14.61
2017-06-21T02:51:37.711Z,14.58
2017-06-21T02:52:37.706Z,14.62
2017-06-21T02:53:37.702Z,14.61
2017-06-21T02:54:37.392Z,14.61
2017-06-21T02:55:37.699Z,14.58
2017-06-21T02:56:37.684Z,14.65
2017-06-21T02:57:37.379Z,14.61
2017-06-21T02:58:37.712Z,14.6
2017-06-21T02:59:37.670Z,14.6
2017-06-21T03:00:37.666Z,14.64
2017-06-21T03:01:37.666Z,14.68
2017-06-21T03:02:37.656Z,14.62
2017-06-21T03:03:37.652Z,14.58
2017-06-21T03:04:37.646Z,14.7
2017-06-21T03:05:37.646Z,14.62
2017-06-21T03:06:37.638Z,14.64
2017-06-21T03:07:37.632Z,14.65
2017-06-21T03:08:37.630Z,14.58
2017-06-21T03:09:37.874Z,14.69
2017-06-21T03:10:37.618Z,14.61
2017-06-21T03:11:37.615Z,14.69
2017-06-21T03:12:37.305Z,14.68
2017-06-21T03:13:37.604Z,14.62
2017-06-21T03:14:37.597Z,14.61
2017-06-21T03:15:37.292Z,14.64
2017-06-21T03:16:37.290Z,14.69
2017-06-21T03:17:37.281Z,14.68
2017-06-21T03:18:37.581Z,14.6
2017-06-21T03:19:37.271Z,14.73
2017-06-21T03:20:37.569Z,14.83
2017-06-21T03:21:37.568Z,14.83
2017-06-21T03:22:37.561Z,14.84
2017-06-21T03:23:37.557Z,15.09
2017-06-21T03:24:37.551Z,15.25
2017-06-21T03:25:37.552Z,15.36
2017-06-21T03:26:37.542Z,15.62
2017-06-21T03:27:37.541Z,15.75
2017-06-21T03:28:37.539Z,15.97
2017-06-21T03:29:37.529Z,16.31
2017-06-21T03:30:37.530Z,16.56
2017-06-21T03:31:37.220Z,16.76
2017-06-21T03:32:37.214Z,16.98
2017-06-21T03:33:37.514Z,17.23
2017-06-21T03:34:37.213Z,17.51
2017-06-21T03:35:37.509Z,17.81
2017-06-21T03:36:37.506Z,18.08
2017-06-21T03:37:37.513Z,18.32
2017-06-21T03:38:37.500Z,18.44
2017-06-21T03:39:37.498Z,18.81
2017-06-21T03:40:37.495Z,19.04
2017-06-21T03:41:37.492Z,19.28
2017-06-21T03:42:37.499Z,19.58
2017-06-21T03:43:37.487Z,19.87
2017-06-21T03:44:37.485Z,20.08
2017-06-21T03:45:37.485Z,20.35
2017-06-21T03:46:37.486Z,20.59
2017-06-21T03:47:37.482Z,20.88
2017-06-21T03:48:37.485Z,21.22
2017-06-21T03:49:37.483Z,21.32
2017-06-21T03:50:37.480Z,21.62
2017-06-21T03:51:37.481Z,21.91
2017-06-21T03:52:37.480Z,22.14
2017-06-21T03:53:37.484Z,22.51
2017-06-21T03:54:37.484Z,22.67
2017-06-21T03:55:37.483Z,22.92
2017-06-21T03:56:37.483Z,23.22
2017-06-21T03:57:37.484Z,23.55
2017-06-21T03:58:37.484Z,23.78
2017-06-21T03:59:37.486Z,24.02
2017-06-21T04:00:37.487Z,24.18
2017-06-21T04:01:37.489Z,24.52
2017-06-21T04:02:37.492Z,24.84
2017-06-21T04:03:37.494Z,24.98
2017-06-21T04:04:37.503Z,25.27
2017-06-21T04:05:37.502Z,25.46
2017-06-21T04:06:37.202Z,25.65
2017-06-21T04:07:37.509Z,25.92
2017-06-21T04:08:37.210Z,26.01
2017-06-21T04:09:37.517Z,26.26
2017-06-21T04:10:37.524Z,26.44
2017-06-21T04:11:37.525Z,26.73
2017-06-21T04:12:37.531Z,26.88
2017-06-21T04:13:37.534Z,27
2017-06-21T04:14:37.541Z,27.28
2017-06-21T04:15:37.545Z,27.51
2017-06-21T04:16:37.551Z,27.7
2017-06-21T04:17:37.558Z,27.78
2017-06-21T04:18:37.562Z,28
2017-06-21T04:19:37.570Z,28.15
2017-06-21T04:20:37.574Z,28.39
2017-06-21T04:21:37.583Z,28.55
2017-06-21T04:22:37.587Z,28.77
2017-06-21T04:23:37.594Z,28.92
2017-06-21T04:24:37.604Z,29.04
2017-06-21T04:25:37.611Z,29.3
2017-06-21T04:26:37.617Z,29.46
2017-06-21T04:27:37.625Z,29.73
2017-06-21T04:28:37.636Z,29.97
2017-06-21T04:29:37.646Z,29.97
2017-06-21T04:30:37.344Z,30.29
2017-06-21T04:31:37.656Z,30.49
2017-06-21T04:32:37.667Z,30.77
2017-06-21T04:33:37.673Z,30.97
2017-06-21T04:34:37.078Z,31.14
2017-06-21T04:35:37.082Z,31.26
2017-06-21T04:36:37.092Z,31.48
2017-06-21T04:37:37.707Z,31.54
2017-06-21T04:38:37.716Z,31.63
2017-06-21T04:39:37.421Z,31.7
2017-06-21T04:40:37.736Z,31.88
2017-06-21T04:41:37.443Z,32.04
2017-06-21T04:42:37.751Z,32.26
2017-06-21T04:43:37.764Z,32.37
2017-06-21T04:44:37.472Z,32.55
2017-06-21T04:45:37.782Z,32.78
2017-06-21T04:46:37.493Z,32.77
2017-06-21T04:47:37.812Z,32.99
2017-06-21T04:48:37.812Z,33.11
2017-06-21T04:49:37.822Z,33.22
2017-06-21T04:50:37.877Z,33.42
2017-06-21T04:51:37.540Z,33.61
2017-06-21T04:52:37.552Z,33.65
2017-06-21T04:53:37.868Z,33.88
2017-06-21T04:54:37.572Z,33.97
2017-06-21T04:55:37.585Z,34.05
2017-06-21T04:56:37.597Z,34.08
2017-06-21T04:57:37.604Z,34.1
2017-06-21T04:58:37.917Z,34.21
2017-06-21T04:59:37.936Z,34.05
2017-06-21T05:00:37.941Z,33.84
2017-06-21T05:01:37.652Z,33.76
2017-06-21T05:02:37.662Z,33.75
2017-06-21T05:03:37.674Z,33.69
2017-06-21T05:04:37.989Z,33.68
2017-06-21T05:05:38.000Z,33.63
2017-06-21T05:06:37.708Z,33.65
2017-06-21T05:07:37.721Z,33.63
2017-06-21T05:08:37.730Z,33.68
2017-06-21T05:09:37.743Z,33.51
2017-06-21T05:10:37.755Z,33.15
2017-06-21T05:11:37.764Z,32.92
2017-06-21T05:12:37.781Z,32.67
2017-06-21T05:13:38.093Z,32.57
2017-06-21T05:14:38.104Z,32.62
2017-06-21T05:15:37.815Z,32.48
2017-06-21T05:16:37.827Z,32.28
2017-06-21T05:17:38.143Z,32.35
2017-06-21T05:18:37.850Z,32.4
2017-06-21T05:19:37.558Z,32.5
2017-06-21T05:20:38.180Z,32.59
2017-06-21T05:21:38.190Z,32.74
2017-06-21T05:22:37.899Z,32.81
2017-06-21T05:23:38.211Z,32.75
2017-06-21T05:24:38.226Z,32.82
2017-06-21T05:25:38.236Z,32.75
2017-06-21T05:26:37.946Z,32.82
2017-06-21T05:27:38.265Z,32.89
2017-06-21T05:28:38.271Z,32.96
2017-06-21T05:29:38.284Z,32.89
2017-06-21T05:30:38.300Z,32.85
2017-06-21T05:31:38.308Z,32.69
2017-06-21T05:32:38.320Z,32.59
2017-06-21T05:33:38.335Z,32.5
2017-06-21T05:34:38.043Z,32.47
2017-06-21T05:35:38.056Z,32.41
2017-06-21T05:36:38.371Z,32.11
2017-06-21T05:37:38.383Z,32.15
2017-06-21T05:38:38.393Z,32.33
2017-06-21T05:39:38.104Z,32.56
2017-06-21T05:40:38.419Z,32.77
2017-06-21T05:41:38.127Z,33
2017-06-21T05:42:38.443Z,33.35
2017-06-21T05:43:38.155Z,33.56
2017-06-21T05:44:38.474Z,33.86
2017-06-21T05:45:38.481Z,34.19
2017-06-21T05:46:38.494Z,34.42
2017-06-21T05:47:38.504Z,34.7
2017-06-21T05:48:38.561Z,34.62
2017-06-21T05:49:38.532Z,34.5
2017-06-21T05:50:38.548Z,34.46
2017-06-21T05:51:38.557Z,34.56
2017-06-21T05:52:38.270Z,34.77
2017-06-21T05:53:38.312Z,34.78
2017-06-21T05:54:38.603Z,34.88
2017-06-21T05:55:38.653Z,35.04
2017-06-21T05:56:38.627Z,35.33
2017-06-21T05:57:38.638Z,35.47
2017-06-21T05:58:38.656Z,35.66
2017-06-21T05:59:38.667Z,35.68
2017-06-21T06:00:38.680Z,35.81
2017-06-21T06:01:38.693Z,35.81
2017-06-21T06:02:38.708Z,35.93
2017-06-21T06:03:38.721Z,35.94
2017-06-21T06:04:38.741Z,36.07
2017-06-21T06:05:38.753Z,36.32
2017-06-21T06:06:38.765Z,36.46
2017-06-21T06:07:38.781Z,36.71
2017-06-21T06:08:38.796Z,36.83
2017-06-21T06:09:38.807Z,36.91
2017-06-21T06:10:38.825Z,37.05
2017-06-21T06:11:38.838Z,37.05
2017-06-21T06:12:38.854Z,37
2017-06-21T06:13:38.869Z,37.05
2017-06-21T06:14:38.887Z,37.03
2017-06-21T06:15:38.899Z,36.85
2017-06-21T06:16:38.918Z,36.95
2017-06-21T06:17:38.928Z,36.93
2017-06-21T06:18:38.943Z,37.03
2017-06-21T06:19:38.961Z,37.13
2017-06-21T06:20:38.975Z,37.21
2017-06-21T06:21:38.994Z,37.21
2017-06-21T06:22:39.007Z,37.29
2017-06-21T06:23:39.024Z,37.31
2017-06-21T06:24:39.037Z,37.03
2017-06-21T06:25:39.054Z,36.65
2017-06-21T06:26:39.070Z,36.43
2017-06-21T06:27:39.089Z,36.34
2017-06-21T06:28:39.099Z,36.41
2017-06-21T06:29:39.120Z,36.5
2017-06-21T06:30:39.135Z,36.43
2017-06-21T06:31:39.148Z,36.44
2017-06-21T06:32:39.167Z,36.51
2017-06-21T06:33:39.182Z,36.44
2017-06-21T06:34:39.198Z,36.34
2017-06-21T06:35:39.211Z,36.28
2017-06-21T06:36:39.231Z,36.22
2017-06-21T06:37:39.242Z,36.23
2017-06-21T06:38:39.262Z,36.35
2017-06-21T06:39:39.276Z,36.19
2017-06-21T06:40:39.295Z,36.27
2017-06-21T06:41:39.007Z,36.27
2017-06-21T06:42:39.324Z,36.2
2017-06-21T06:43:39.337Z,36.38
2017-06-21T06:44:39.356Z,36.41
2017-06-21T06:45:39.372Z,36.46
2017-06-21T06:46:39.387Z,36.39
2017-06-21T06:47:39.103Z,36.35
2017-06-21T06:48:39.419Z,36.03
2017-06-21T06:49:39.434Z,35.37
2017-06-21T06:50:39.448Z,34.85
2017-06-21T06:51:39.465Z,34.49
2017-06-21T06:52:39.481Z,34.37
2017-06-21T06:53:39.499Z,34.31
2017-06-21T06:54:39.513Z,34.28
2017-06-21T06:55:39.533Z,34.15
2017-06-21T06:56:39.546Z,34.19
2017-06-21T06:57:39.564Z,34.19
2017-06-21T06:58:39.276Z,34.28
2017-06-21T06:59:39.593Z,34.39
2017-06-21T07:00:39.606Z,34.73
2017-06-21T07:01:39.628Z,34.89
2017-06-21T07:02:39.638Z,35.07
2017-06-21T07:03:39.655Z,35.11
2017-06-21T07:04:39.369Z,35.09
2017-06-21T07:05:39.687Z,35.11
2017-06-21T07:06:39.704Z,35.14
2017-06-21T07:07:39.717Z,35.19
2017-06-21T07:08:39.732Z,35.34
2017-06-21T07:09:39.745Z,35.4
2017-06-21T07:10:39.763Z,35.44
2017-06-21T07:11:39.778Z,35.53
2017-06-21T07:12:39.490Z,35.62
2017-06-21T07:13:39.810Z,35.7
2017-06-21T07:14:39.825Z,35.81
2017-06-21T07:15:39.839Z,35.94
2017-06-21T07:16:39.857Z,36
2017-06-21T07:17:39.870Z,36.03
2017-06-21T07:18:39.887Z,35.89
2017-06-21T07:19:39.907Z,35.8
2017-06-21T07:20:39.919Z,35.55
2017-06-21T07:21:39.635Z,35.16
2017-06-21T07:22:39.949Z,34.8
2017-06-21T07:23:39.663Z,34.56
2017-06-21T07:24:39.983Z,34.42
2017-06-21T07:25:39.693Z,34.35
2017-06-21T07:26:40.013Z,34.06
2017-06-21T07:27:40.029Z,33.91
2017-06-21T07:28:40.043Z,33.6
2017-06-21T07:29:40.059Z,33.32
2017-06-21T07:30:39.767Z,33.15
2017-06-21T07:31:39.783Z,33.16
2017-06-21T07:32:39.797Z,33.34
2017-06-21T07:33:39.815Z,33.44
2017-06-21T07:34:39.833Z,33.49
2017-06-21T07:35:40.147Z,33.63
2017-06-21T07:36:40.165Z,33.51
2017-06-21T07:37:40.176Z,33.54
2017-06-21T07:38:39.889Z,33.65
2017-06-21T07:39:40.206Z,33.82
2017-06-21T07:40:39.917Z,33.69
2017-06-21T07:41:39.933Z,33.38
2017-06-21T07:42:40.251Z,33.31
2017-06-21T07:43:39.963Z,33.16
2017-06-21T07:44:39.977Z,33.07
2017-06-21T07:45:39.994Z,33.19
2017-06-21T07:46:40.008Z,33.15
2017-06-21T07:47:40.023Z,33.29
2017-06-21T07:48:40.038Z,33.37
2017-06-21T07:49:40.056Z,33.37
2017-06-21T07:50:40.070Z,33.5
2017-06-21T07:51:40.387Z,33.49
2017-06-21T07:52:40.098Z,33.65
2017-06-21T07:53:40.416Z,33.6
2017-06-21T07:54:40.127Z,33.57
2017-06-21T07:55:40.452Z,33.5
2017-06-21T07:56:40.466Z,33.5
2017-06-21T07:57:39.870Z,33.39
2017-06-21T07:58:39.889Z,33.34
2017-06-21T07:59:40.506Z,33.18
2017-06-21T08:00:40.523Z,33.16
2017-06-21T08:01:40.536Z,33.19
2017-06-21T08:02:40.554Z,33.12
2017-06-21T08:03:40.568Z,33.19
2017-06-21T08:04:39.980Z,33.22
2017-06-21T08:05:40.598Z,33.31
2017-06-21T08:06:40.311Z,33.41
2017-06-21T08:07:40.629Z,33.42
2017-06-21T08:08:40.640Z,33.53
2017-06-21T08:09:40.658Z,33.26
2017-06-21T08:10:40.671Z,32.97
2017-06-21T08:11:40.686Z,32.5
2017-06-21T08:12:40.702Z,32.19
2017-06-21T08:13:40.715Z,31.85
2017-06-21T08:14:40.738Z,31.56
2017-06-21T08:15:40.746Z,31.46
2017-06-21T08:16:40.763Z,31.43
2017-06-21T08:17:40.774Z,31.38
2017-06-21T08:18:40.791Z,31.48
2017-06-21T08:19:40.808Z,31.41
2017-06-21T08:20:40.818Z,31.54
2017-06-21T08:21:40.833Z,31.56
2017-06-21T08:22:40.544Z,31.54
2017-06-21T08:23:40.867Z,31.39
2017-06-21T08:24:40.875Z,31.35
2017-06-21T08:25:40.589Z,31.5
2017-06-21T08:26:40.905Z,31.57
2017-06-21T08:27:40.616Z,31.75
2017-06-21T08:28:40.931Z,31.68
2017-06-21T08:29:40.948Z,31.65
2017-06-21T08:30:40.965Z,31.58
2017-06-21T08:31:40.980Z,31.48
2017-06-21T08:32:40.990Z,31.47
2017-06-21T08:33:41.007Z,31.46
2017-06-21T08:34:41.020Z,31.53
2017-06-21T08:35:41.035Z,31.38
2017-06-21T08:36:40.746Z,31.23
2017-06-21T08:37:41.064Z,31.23
2017-06-21T08:38:40.772Z,31.34
2017-06-21T08:39:41.092Z,31.34
2017-06-21T08:40:40.804Z,31.41
2017-06-21T08:41:41.117Z,31.39
2017-06-21T08:42:41.131Z,31.43
2017-06-21T08:43:41.147Z,31.39
2017-06-21T08:44:41.164Z,31.36
2017-06-21T08:45:40.875Z,31.31
2017-06-21T08:46:41.194Z,31.25
2017-06-21T08:47:41.204Z,31.17
2017-06-21T08:48:41.219Z,31.09
2017-06-21T08:49:41.238Z,31.13
2017-06-21T08:50:41.248Z,31.14
2017-06-21T08:51:41.261Z,31.16
2017-06-21T08:52:41.276Z,31.04
2017-06-21T08:53:41.291Z,30.95
2017-06-21T08:54:41.000Z,30.86
2017-06-21T08:55:41.320Z,30.7
2017-06-21T08:56:41.336Z,30.69
2017-06-21T08:57:41.347Z,30.64
2017-06-21T08:58:41.060Z,30.49
2017-06-21T08:59:41.379Z,30.51
2017-06-21T09:00:41.389Z,30.29
2017-06-21T09:01:41.099Z,30.11
2017-06-21T09:02:41.417Z,29.92
2017-06-21T09:03:41.429Z,29.8
2017-06-21T09:04:41.445Z,29.52
2017-06-21T09:05:41.154Z,29.11
2017-06-21T09:06:41.469Z,28.85
2017-06-21T09:07:41.173Z,28.48
2017-06-21T09:08:41.489Z,28.22
2017-06-21T09:09:41.501Z,28.09
2017-06-21T09:10:41.207Z,27.97
2017-06-21T09:11:41.521Z,27.74
2017-06-21T09:12:41.227Z,27.62
2017-06-21T09:13:41.539Z,27.28
2017-06-21T09:14:41.551Z,27.17
2017-06-21T09:15:41.859Z,27
2017-06-21T09:16:41.568Z,26.89
2017-06-21T09:17:41.285Z,26.82
2017-06-21T09:18:41.279Z,26.67
2017-06-21T09:19:41.589Z,26.6
2017-06-21T09:20:41.596Z,26.39
2017-06-21T09:21:41.606Z,26.28
2017-06-21T09:22:41.614Z,26.01
2017-06-21T09:23:41.617Z,25.88
2017-06-21T09:24:41.623Z,25.82
2017-06-21T09:25:41.632Z,25.69
2017-06-21T09:26:41.641Z,25.69
2017-06-21T09:27:41.642Z,25.55
2017-06-21T09:28:41.655Z,25.33
2017-06-21T09:29:41.348Z,25.27
2017-06-21T09:30:41.654Z,25.03
2017-06-21T09:31:41.663Z,24.73
2017-06-21T09:32:41.362Z,24.81
2017-06-21T09:33:41.674Z,24.77
2017-06-21T09:34:41.368Z,24.6
2017-06-21T09:35:41.071Z,24.52
2017-06-21T09:36:41.079Z,24.57
2017-06-21T09:37:41.381Z,24.46
2017-06-21T09:38:41.082Z,24.43
2017-06-21T09:39:41.692Z,24.35
2017-06-21T09:40:41.695Z,24.37
2017-06-21T09:41:41.397Z,24.37
2017-06-21T09:42:41.702Z,24.18
2017-06-21T09:43:41.705Z,24.16
2017-06-21T09:44:41.708Z,24.15
2017-06-21T09:45:41.711Z,24.15
2017-06-21T09:46:41.714Z,24.16
2017-06-21T09:47:41.717Z,24.22
2017-06-21T09:48:41.721Z,24.25
2017-06-21T09:49:41.721Z,24.31
2017-06-21T09:50:41.422Z,24.3
2017-06-21T09:51:41.727Z,24.31
2017-06-21T09:52:41.727Z,24.21
2017-06-21T09:53:41.439Z,24.18
2017-06-21T09:54:41.734Z,24.12
2017-06-21T09:55:41.739Z,24.13
2017-06-21T09:56:41.746Z,24.1
2017-06-21T09:57:41.741Z,24.18
2017-06-21T09:58:41.743Z,24.06
2017-06-21T09:59:41.746Z,24.05
2017-06-21T10:00:41.748Z,24.13
2017-06-21T10:01:41.752Z,24.21
2017-06-21T10:02:41.456Z,24.18
2017-06-21T10:03:41.754Z,24.16
2017-06-21T10:04:41.759Z,24.12
2017-06-21T10:05:41.760Z,24.15
2017-06-21T10:06:41.763Z,24.15
2017-06-21T10:07:41.764Z,24.2
2017-06-21T10:08:41.767Z,24.16
2017-06-21T10:09:41.768Z,24.12
2017-06-21T10:10:41.776Z,24.13
2017-06-21T10:11:41.773Z,24.21
2017-06-21T10:12:41.772Z,24.13
2017-06-21T10:13:41.779Z,24.02
2017-06-21T10:14:41.775Z,23.95
2017-06-21T10:15:41.784Z,23.94
2017-06-21T10:16:41.781Z,23.95
2017-06-21T10:17:41.784Z,24.06
2017-06-21T10:18:41.789Z,23.93
2017-06-21T10:19:41.789Z,23.95
2017-06-21T10:20:41.790Z,23.95
2017-06-21T10:21:41.795Z,24.03
2017-06-21T10:22:41.795Z,23.98
2017-06-21T10:23:41.799Z,24.03
2017-06-21T10:24:41.800Z,24.1
2017-06-21T10:25:41.907Z,24.12
2017-06-21T10:26:41.801Z,24.1
2017-06-21T10:27:41.802Z,24.1
2017-06-21T10:28:41.504Z,24.21
2017-06-21T10:29:41.807Z,24.15
2017-06-21T10:30:41.811Z,24.13
2017-06-21T10:31:41.813Z,24.22
2017-06-21T10:32:41.818Z,24.22
2017-06-21T10:33:41.817Z,24.22
2017-06-21T10:34:41.516Z,24.31
2017-06-21T10:35:41.819Z,24.35
2017-06-21T10:36:41.821Z,24.42
2017-06-21T10:37:41.825Z,24.49
2017-06-21T10:38:41.842Z,24.52
2017-06-21T10:39:41.826Z,24.53
2017-06-21T10:40:41.830Z,24.6
2017-06-21T10:41:41.529Z,24.6
2017-06-21T10:42:42.038Z,24.68
2017-06-21T10:43:41.531Z,24.69
2017-06-21T10:44:41.841Z,24.71
2017-06-21T10:45:41.839Z,24.73
2017-06-21T10:46:41.840Z,24.71
2017-06-21T10:47:41.840Z,24.64
2017-06-21T10:48:41.846Z,24.64
2017-06-21T10:49:41.851Z,24.77
2017-06-21T10:50:41.854Z,24.61
2017-06-21T10:51:41.852Z,24.71
2017-06-21T10:52:41.855Z,24.76
2017-06-21T10:53:41.861Z,24.78
2017-06-21T10:54:41.857Z,24.78
2017-06-21T10:55:41.864Z,24.77
2017-06-21T10:56:41.876Z,24.69
2017-06-21T10:57:41.865Z,24.73
2017-06-21T10:58:41.866Z,24.73
2017-06-21T10:59:41.867Z,24.77
2017-06-21T11:00:41.870Z,24.76
2017-06-21T11:01:41.874Z,24.77
2017-06-21T11:02:41.873Z,24.81
2017-06-21T11:03:41.876Z,24.84
2017-06-21T11:04:41.878Z,24.81
2017-06-21T11:05:41.886Z,24.85
2017-06-21T11:06:41.884Z,24.84
2017-06-21T11:07:41.886Z,24.85
2017-06-21T11:08:41.888Z,24.95
2017-06-21T11:09:41.890Z,24.87
2017-06-21T11:10:41.896Z,24.87
2017-06-21T11:11:41.798Z,24.95
2017-06-21T11:12:41.899Z,24.78
2017-06-21T11:13:41.901Z,25
2017-06-21T11:14:41.901Z,24.93
2017-06-21T11:15:42.203Z,24.9
2017-06-21T11:16:41.907Z,24.93
2017-06-21T11:17:41.913Z,25.03
2017-06-21T11:18:41.911Z,24.96
2017-06-21T11:19:41.920Z,24.99
2017-06-21T11:20:41.917Z,24.99
2017-06-21T11:21:41.924Z,25.06
2017-06-21T11:22:41.617Z,25.08
2017-06-21T11:23:41.925Z,25.14
2017-06-21T11:24:41.924Z,25.17
2017-06-21T11:25:41.935Z,25.18
2017-06-21T11:26:41.630Z,25.23
2017-06-21T11:27:41.931Z,25.25
2017-06-21T11:28:41.935Z,25.18
2017-06-21T11:29:41.635Z,25.15
2017-06-21T11:30:41.942Z,25.05
2017-06-21T11:31:41.943Z,24.87
2017-06-21T11:32:41.642Z,24.83
2017-06-21T11:33:41.948Z,24.81
2017-06-21T11:34:41.648Z,24.69
2017-06-21T11:35:42.206Z,24.62
2017-06-21T11:36:41.955Z,24.58
2017-06-21T11:37:41.956Z,24.58
2017-06-21T11:38:41.962Z,24.68
2017-06-21T11:39:41.963Z,24.69
2017-06-21T11:40:41.966Z,24.87
2017-06-21T11:41:41.974Z,24.99
2017-06-21T11:42:41.971Z,24.96
2017-06-21T11:43:41.670Z,25.08
2017-06-21T11:44:41.977Z,25.08
2017-06-21T11:45:41.978Z,25.14
2017-06-21T11:46:41.982Z,25.17
2017-06-21T11:47:41.983Z,25.3
2017-06-21T11:48:41.983Z,25.3
2017-06-21T11:49:41.986Z,25.43
2017-06-21T11:50:41.692Z,25.51
2017-06-21T11:51:41.992Z,25.57
2017-06-21T11:52:41.694Z,25.54
2017-06-21T11:53:41.995Z,25.64
2017-06-21T11:54:41.997Z,25.64
2017-06-21T11:55:42.001Z,25.77
2017-06-21T11:56:42.007Z,25.72
2017-06-21T11:57:42.006Z,25.77
2017-06-21T11:58:41.405Z,25.7
2017-06-21T11:59:41.711Z,25.65
2017-06-21T12:00:41.712Z,25.67
2017-06-21T12:01:42.019Z,25.67
2017-06-21T12:02:42.023Z,25.72
2017-06-21T12:03:41.724Z,25.72
2017-06-21T12:04:42.030Z,25.67
2017-06-21T12:05:41.727Z,25.61
2017-06-21T12:06:41.429Z,25.61
2017-06-21T12:07:42.039Z,25.62
2017-06-21T12:08:42.039Z,25.62
2017-06-21T12:09:41.742Z,25.64
2017-06-21T12:10:41.744Z,25.58
2017-06-21T12:11:41.455Z,25.62
2017-06-21T12:12:41.445Z,25.69
2017-06-21T12:13:41.753Z,25.7
2017-06-21T12:14:41.756Z,25.72
2017-06-21T12:15:41.965Z,25.77
2017-06-21T12:16:41.459Z,25.76
2017-06-21T12:17:41.763Z,25.79
2017-06-21T12:18:41.766Z,25.8
2017-06-21T12:19:41.773Z,25.8
2017-06-21T12:20:42.076Z,25.87
2017-06-21T12:21:41.777Z,25.95
2017-06-21T12:22:41.480Z,26.05
2017-06-21T12:23:42.088Z,25.9
2017-06-21T12:24:41.484Z,26.02
2017-06-21T12:25:42.095Z,26.1
2017-06-21T12:26:41.792Z,26.23
2017-06-21T12:27:42.096Z,26.33
2017-06-21T12:28:41.798Z,26.43
2017-06-21T12:29:42.110Z,26.52
2017-06-21T12:30:42.111Z,26.55
2017-06-21T12:31:42.111Z,26.52
2017-06-21T12:32:42.116Z,26.63
2017-06-21T12:33:41.818Z,26.66
2017-06-21T12:34:41.823Z,26.63
2017-06-21T12:35:41.822Z,26.6
2017-06-21T12:36:41.831Z,26.6
2017-06-21T12:37:42.133Z,26.66
2017-06-21T12:38:42.137Z,26.7
2017-06-21T12:39:42.139Z,26.81
2017-06-21T12:40:42.146Z,26.69
2017-06-21T12:41:41.845Z,26.48
2017-06-21T12:42:42.157Z,26.43
2017-06-21T12:43:41.858Z,26.35
2017-06-21T12:44:42.159Z,26.33
2017-06-21T12:45:41.860Z,26.3
2017-06-21T12:46:41.866Z,26.43
2017-06-21T12:47:42.170Z,26.47
2017-06-21T12:48:42.182Z,26.4
2017-06-21T12:49:41.876Z,26.26
2017-06-21T12:50:42.182Z,26.2
2017-06-21T12:51:41.581Z,26.1
2017-06-21T12:52:41.588Z,26.09
2017-06-21T12:53:41.891Z,26.12
2017-06-21T12:54:42.201Z,26.21
2017-06-21T12:55:42.204Z,26.23